sensor_id;sensor_type;location;lat;lon;timestamp;temperature;humidity
45549;DHT22;31270;48.328;10.096;2022-12-29T00:02:10;4.70;99.90
45549;DHT22;31270;48.328;10.096;2022-12-29T00:04:36;4.60;99.90
45549;DHT22;31270;48.328;10.096;2022-12-29T00:07:02;4.60;99.90
45549;DHT22;31270;48.328;10.096;2022-12-29T00:09:31;4.60;99.90
45549;DHT22;31270;48.328;10.096;2022-12-29T00:11:57;4.60;99.90
45549;DHT22;31270;48.328;10.096;2022-12-29T00:14:23;4.50;99.90
45549;DHT22;31270;48.328;10.096;2022-12-29T00:17:07;4.50;99.90
45549;DHT22;31270;48.328;10.096;2022-12-29T00:19:33;4.50;99.90
45549;DHT22;31270;48.328;10.096;2022-12-29T00:22:17;4.50;99.90
45549;DHT22;31270;48.328;10.096;2022-12-29T00:25:03;4.50;99.90
45549;DHT22;31270;48.328;10.096;2022-12-29T00:27:47;4.50;99.90
45549;DHT22;31270;48.328;10.096;2022-12-29T00:30:31;4.50;99.90
45549;DHT22;31270;48.328;10.096;2022-12-29T00:33:18;4.50;99.90
45549;DHT22;31270;48.328;10.096;2022-12-29T00:36:16;4.50;99.90
45549;DHT22;31270;48.328;10.096;2022-12-29T00:38:51;4.40;99.90
45549;DHT22;31270;48.328;10.096;2022-12-29T00:41:37;4.40;99.90
45549;DHT22;31270;48.328;10.096;2022-12-29T00:44:21;4.40;99.90
45549;DHT22;31270;48.328;10.096;2022-12-29T00:46:47;4.40;99.90
45549;DHT22;31270;48.328;10.096;2022-12-29T00:49:13;4.40;99.90
45549;DHT22;31270;48.328;10.096;2022-12-29T00:52:08;4.40;99.90
45549;DHT22;31270;48.328;10.096;2022-12-29T00:54:36;4.40;99.90
45549;DHT22;31270;48.328;10.096;2022-12-29T00:57:04;4.40;99.90
45549;DHT22;31270;48.328;10.096;2022-12-29T00:59:38;4.40;99.90
45549;DHT22;31270;48.328;10.096;2022-12-29T01:02:04;4.50;99.90
45549;DHT22;31270;48.328;10.096;2022-12-29T01:04:30;4.40;99.90
45549;DHT22;31270;48.328;10.096;2022-12-29T01:06:56;4.40;99.90
45549;DHT22;31270;48.328;10.096;2022-12-29T01:09:22;4.50;99.90
45549;DHT22;31270;48.328;10.096;2022-12-29T01:12:08;4.50;99.90
45549;DHT22;31270;48.328;10.096;2022-12-29T01:14:35;4.50;99.90
45549;DHT22;31270;48.328;10.096;2022-12-29T01:17:01;4.50;99.90
45549;DHT22;31270;48.328;10.096;2022-12-29T01:19:27;4.60;99.90
45549;DHT22;31270;48.328;10.096;2022-12-29T01:21:52;4.60;99.90
45549;DHT22;31270;48.328;10.096;2022-12-29T01:24:21;4.60;99.90
45549;DHT22;31270;48.328;10.096;2022-12-29T01:26:47;4.60;99.90
45549;DHT22;31270;48.328;10.096;2022-12-29T01:29:14;4.60;99.90
45549;DHT22;31270;48.328;10.096;2022-12-29T01:31:40;4.70;99.90
45549;DHT22;31270;48.328;10.096;2022-12-29T01:34:05;4.70;99.90
45549;DHT22;31270;48.328;10.096;2022-12-29T01:36:31;4.80;99.90
45549;DHT22;31270;48.328;10.096;2022-12-29T01:38:57;4.80;99.90
45549;DHT22;31270;48.328;10.096;2022-12-29T01:41:22;4.80;99.90
45549;DHT22;31270;48.328;10.096;2022-12-29T01:43:53;4.90;99.90
45549;DHT22;31270;48.328;10.096;2022-12-29T01:46:23;4.90;99.90
45549;DHT22;31270;48.328;10.096;2022-12-29T01:51:31;5.00;99.90
45549;DHT22;31270;48.328;10.096;2022-12-29T01:54:03;5.00;99.90
45549;DHT22;31270;48.328;10.096;2022-12-29T01:56:30;5.00;99.90
45549;DHT22;31270;48.328;10.096;2022-12-29T01:59:02;5.00;99.90
45549;DHT22;31270;48.328;10.096;2022-12-29T02:01:29;5.00;99.90
45549;DHT22;31270;48.328;10.096;2022-12-29T02:03:54;5.00;99.90
45549;DHT22;31270;48.328;10.096;2022-12-29T02:06:29;5.10;99.90
45549;DHT22;31270;48.328;10.096;2022-12-29T02:08:56;5.10;99.90
45549;DHT22;31270;48.328;10.096;2022-12-29T02:11:25;5.20;99.90
45549;DHT22;31270;48.328;10.096;2022-12-29T02:13:51;5.20;99.90
45549;DHT22;31270;48.328;10.096;2022-12-29T02:38:56;5.60;99.90
45549;DHT22;31270;48.328;10.096;2022-12-29T02:41:31;5.60;99.90
45549;DHT22;31270;48.328;10.096;2022-12-29T02:44:34;5.60;99.90
45549;DHT22;31270;48.328;10.096;2022-12-29T02:50:22;5.70;99.90
45549;DHT22;31270;48.328;10.096;2022-12-29T02:52:58;5.70;99.90
45549;DHT22;31270;48.328;10.096;2022-12-29T02:55:24;5.80;99.90
45549;DHT22;31270;48.328;10.096;2022-12-29T02:58:19;5.80;99.90
45549;DHT22;31270;48.328;10.096;2022-12-29T03:06:11;5.90;99.90
45549;DHT22;31270;48.328;10.096;2022-12-29T03:08:44;6.00;99.90
45549;DHT22;31270;48.328;10.096;2022-12-29T03:11:13;6.00;99.90
45549;DHT22;31270;48.328;10.096;2022-12-29T03:14:09;6.00;99.90
45549;DHT22;31270;48.328;10.096;2022-12-29T03:17:01;6.10;99.90
45549;DHT22;31270;48.328;10.096;2022-12-29T03:19:35;6.10;99.90
45549;DHT22;31270;48.328;10.096;2022-12-29T03:22:04;6.20;99.90
45549;DHT22;31270;48.328;10.096;2022-12-29T03:24:52;6.20;99.90
45549;DHT22;31270;48.328;10.096;2022-12-29T03:27:22;6.20;99.90
45549;DHT22;31270;48.328;10.096;2022-12-29T03:29:52;6.30;99.90
45549;DHT22;31270;48.328;10.096;2022-12-29T03:32:21;6.30;99.90
45549;DHT22;31270;48.328;10.096;2022-12-29T03:34:49;6.30;99.90
45549;DHT22;31270;48.328;10.096;2022-12-29T03:37:19;6.20;99.90
45549;DHT22;31270;48.328;10.096;2022-12-29T03:39:46;6.20;99.90
45549;DHT22;31270;48.328;10.096;2022-12-29T03:42:19;6.30;99.90
45549;DHT22;31270;48.328;10.096;2022-12-29T03:44:45;6.30;99.90
45549;DHT22;31270;48.328;10.096;2022-12-29T03:47:12;6.30;99.90
45549;DHT22;31270;48.328;10.096;2022-12-29T03:49:38;6.30;99.90
45549;DHT22;31270;48.328;10.096;2022-12-29T03:52:05;6.40;99.90
45549;DHT22;31270;48.328;10.096;2022-12-29T03:54:31;6.40;99.90
45549;DHT22;31270;48.328;10.096;2022-12-29T03:56:57;6.50;99.90
45549;DHT22;31270;48.328;10.096;2022-12-29T03:59:23;6.50;99.90
45549;DHT22;31270;48.328;10.096;2022-12-29T04:01:48;6.60;99.90
45549;DHT22;31270;48.328;10.096;2022-12-29T04:04:14;6.60;99.90
45549;DHT22;31270;48.328;10.096;2022-12-29T04:06:40;6.60;99.90
45549;DHT22;31270;48.328;10.096;2022-12-29T04:09:05;6.60;99.90
45549;DHT22;31270;48.328;10.096;2022-12-29T04:11:31;6.70;99.90
45549;DHT22;31270;48.328;10.096;2022-12-29T04:13:57;6.70;99.90
45549;DHT22;31270;48.328;10.096;2022-12-29T04:16:22;6.80;99.90
45549;DHT22;31270;48.328;10.096;2022-12-29T04:18:48;6.90;99.90
45549;DHT22;31270;48.328;10.096;2022-12-29T04:21:13;6.90;99.90
45549;DHT22;31270;48.328;10.096;2022-12-29T04:23:39;6.90;99.90
45549;DHT22;31270;48.328;10.096;2022-12-29T04:26:06;6.80;99.90
45549;DHT22;31270;48.328;10.096;2022-12-29T04:28:35;6.90;99.90
45549;DHT22;31270;48.328;10.096;2022-12-29T04:31:02;6.90;99.90
45549;DHT22;31270;48.328;10.096;2022-12-29T04:33:28;6.80;99.90
45549;DHT22;31270;48.328;10.096;2022-12-29T04:35:54;6.90;99.90
45549;DHT22;31270;48.328;10.096;2022-12-29T04:38:23;6.90;99.90
45549;DHT22;31270;48.328;10.096;2022-12-29T04:40:50;6.90;99.90
45549;DHT22;31270;48.328;10.096;2022-12-29T04:43:16;7.00;99.90
45549;DHT22;31270;48.328;10.096;2022-12-29T04:45:44;7.00;99.90
45549;DHT22;31270;48.328;10.096;2022-12-29T04:48:10;7.00;99.90
45549;DHT22;31270;48.328;10.096;2022-12-29T04:50:36;7.00;99.90
45549;DHT22;31270;48.328;10.096;2022-12-29T04:53:02;7.10;99.90
45549;DHT22;31270;48.328;10.096;2022-12-29T04:55:28;7.20;99.90
45549;DHT22;31270;48.328;10.096;2022-12-29T04:57:54;7.20;99.90
45549;DHT22;31270;48.328;10.096;2022-12-29T05:00:20;7.20;99.90
45549;DHT22;31270;48.328;10.096;2022-12-29T05:02:45;7.20;99.90
45549;DHT22;31270;48.328;10.096;2022-12-29T05:05:11;7.20;99.90
45549;DHT22;31270;48.328;10.096;2022-12-29T05:07:37;7.10;99.90
45549;DHT22;31270;48.328;10.096;2022-12-29T05:10:04;7.10;99.90
45549;DHT22;31270;48.328;10.096;2022-12-29T05:12:33;7.10;99.90
45549;DHT22;31270;48.328;10.096;2022-12-29T05:14:59;7.10;99.90
45549;DHT22;31270;48.328;10.096;2022-12-29T05:17:25;7.00;99.90
45549;DHT22;31270;48.328;10.096;2022-12-29T05:19:51;7.10;99.90
45549;DHT22;31270;48.328;10.096;2022-12-29T05:22:16;7.00;99.90
45549;DHT22;31270;48.328;10.096;2022-12-29T05:24:42;7.10;99.90
45549;DHT22;31270;48.328;10.096;2022-12-29T05:27:08;7.00;99.90
45549;DHT22;31270;48.328;10.096;2022-12-29T05:29:33;7.00;99.90
45549;DHT22;31270;48.328;10.096;2022-12-29T05:31:59;7.00;99.90
45549;DHT22;31270;48.328;10.096;2022-12-29T05:34:26;6.90;99.90
45549;DHT22;31270;48.328;10.096;2022-12-29T05:36:51;6.90;99.90
45549;DHT22;31270;48.328;10.096;2022-12-29T05:39:18;7.00;99.90
45549;DHT22;31270;48.328;10.096;2022-12-29T05:41:44;6.90;99.90
45549;DHT22;31270;48.328;10.096;2022-12-29T05:44:10;6.90;99.90
45549;DHT22;31270;48.328;10.096;2022-12-29T05:46:36;6.90;99.90
45549;DHT22;31270;48.328;10.096;2022-12-29T05:49:02;6.90;99.90
45549;DHT22;31270;48.328;10.096;2022-12-29T05:51:27;6.90;99.90
45549;DHT22;31270;48.328;10.096;2022-12-29T05:53:53;6.90;99.90
45549;DHT22;31270;48.328;10.096;2022-12-29T05:56:19;6.90;99.90
45549;DHT22;31270;48.328;10.096;2022-12-29T05:58:44;6.90;99.90
45549;DHT22;31270;48.328;10.096;2022-12-29T06:01:10;6.80;99.90
45549;DHT22;31270;48.328;10.096;2022-12-29T06:03:35;6.80;99.90
45549;DHT22;31270;48.328;10.096;2022-12-29T06:06:01;6.80;99.90
45549;DHT22;31270;48.328;10.096;2022-12-29T06:08:26;6.80;99.90
45549;DHT22;31270;48.328;10.096;2022-12-29T06:10:52;6.80;99.90
45549;DHT22;31270;48.328;10.096;2022-12-29T06:13:18;6.70;99.90
45549;DHT22;31270;48.328;10.096;2022-12-29T06:15:43;6.70;99.90
45549;DHT22;31270;48.328;10.096;2022-12-29T06:18:09;6.70;99.90
45549;DHT22;31270;48.328;10.096;2022-12-29T06:20:35;6.60;99.90
45549;DHT22;31270;48.328;10.096;2022-12-29T06:23:00;6.60;99.90
45549;DHT22;31270;48.328;10.096;2022-12-29T06:25:26;6.60;99.90
45549;DHT22;31270;48.328;10.096;2022-12-29T06:27:52;6.60;99.90
45549;DHT22;31270;48.328;10.096;2022-12-29T06:30:17;6.60;99.90
45549;DHT22;31270;48.328;10.096;2022-12-29T06:32:43;6.60;99.90
45549;DHT22;31270;48.328;10.096;2022-12-29T06:35:09;6.60;99.90
45549;DHT22;31270;48.328;10.096;2022-12-29T06:37:35;6.60;99.90
45549;DHT22;31270;48.328;10.096;2022-12-29T06:40:01;6.60;99.90
45549;DHT22;31270;48.328;10.096;2022-12-29T06:42:27;6.60;99.90
45549;DHT22;31270;48.328;10.096;2022-12-29T06:44:52;6.50;99.90
45549;DHT22;31270;48.328;10.096;2022-12-29T06:47:18;6.50;99.90
45549;DHT22;31270;48.328;10.096;2022-12-29T06:49:44;6.60;99.90
45549;DHT22;31270;48.328;10.096;2022-12-29T06:52:10;6.60;99.90
45549;DHT22;31270;48.328;10.096;2022-12-29T06:54:36;6.50;99.90
45549;DHT22;31270;48.328;10.096;2022-12-29T06:57:01;6.50;99.90
45549;DHT22;31270;48.328;10.096;2022-12-29T06:59:27;6.50;99.90
45549;DHT22;31270;48.328;10.096;2022-12-29T07:01:53;6.40;99.90
45549;DHT22;31270;48.328;10.096;2022-12-29T07:04:18;6.40;99.90
45549;DHT22;31270;48.328;10.096;2022-12-29T07:06:45;6.50;99.90
45549;DHT22;31270;48.328;10.096;2022-12-29T07:09:11;6.50;99.90
45549;DHT22;31270;48.328;10.096;2022-12-29T07:11:37;6.60;99.90
45549;DHT22;31270;48.328;10.096;2022-12-29T07:14:02;6.50;99.90
45549;DHT22;31270;48.328;10.096;2022-12-29T07:16:28;6.50;99.90
45549;DHT22;31270;48.328;10.096;2022-12-29T07:18:56;6.50;99.90
45549;DHT22;31270;48.328;10.096;2022-12-29T07:21:21;6.60;99.90
45549;DHT22;31270;48.328;10.096;2022-12-29T07:23:47;6.50;99.90
45549;DHT22;31270;48.328;10.096;2022-12-29T07:26:14;6.60;99.90
45549;DHT22;31270;48.328;10.096;2022-12-29T07:28:40;6.60;99.90
45549;DHT22;31270;48.328;10.096;2022-12-29T07:31:20;6.70;99.90
45549;DHT22;31270;48.328;10.096;2022-12-29T07:33:46;6.70;99.90
45549;DHT22;31270;48.328;10.096;2022-12-29T07:36:13;6.80;99.90
45549;DHT22;31270;48.328;10.096;2022-12-29T07:38:39;6.80;99.90
45549;DHT22;31270;48.328;10.096;2022-12-29T07:41:05;6.80;99.90
45549;DHT22;31270;48.328;10.096;2022-12-29T07:43:31;6.80;99.90
45549;DHT22;31270;48.328;10.096;2022-12-29T07:45:56;6.80;99.90
45549;DHT22;31270;48.328;10.096;2022-12-29T07:48:22;6.80;99.90
45549;DHT22;31270;48.328;10.096;2022-12-29T07:50:49;6.90;99.90
45549;DHT22;31270;48.328;10.096;2022-12-29T07:53:16;6.90;99.90
45549;DHT22;31270;48.328;10.096;2022-12-29T07:55:42;6.90;99.90
45549;DHT22;31270;48.328;10.096;2022-12-29T07:58:07;6.90;99.90
45549;DHT22;31270;48.328;10.096;2022-12-29T08:00:33;6.90;99.90
45549;DHT22;31270;48.328;10.096;2022-12-29T08:02:59;6.90;99.90
45549;DHT22;31270;48.328;10.096;2022-12-29T08:05:26;6.90;99.90
45549;DHT22;31270;48.328;10.096;2022-12-29T08:07:52;7.00;99.90
45549;DHT22;31270;48.328;10.096;2022-12-29T08:10:18;7.00;99.90
45549;DHT22;31270;48.328;10.096;2022-12-29T08:12:44;7.00;99.90
45549;DHT22;31270;48.328;10.096;2022-12-29T08:15:11;7.10;99.90
45549;DHT22;31270;48.328;10.096;2022-12-29T08:17:37;7.10;99.90
45549;DHT22;31270;48.328;10.096;2022-12-29T08:20:03;7.10;99.90
45549;DHT22;31270;48.328;10.096;2022-12-29T08:22:29;7.10;99.90
45549;DHT22;31270;48.328;10.096;2022-12-29T08:24:55;7.10;99.90
45549;DHT22;31270;48.328;10.096;2022-12-29T08:27:21;7.20;99.90
45549;DHT22;31270;48.328;10.096;2022-12-29T08:29:47;7.10;99.90
45549;DHT22;31270;48.328;10.096;2022-12-29T08:32:13;7.20;99.90
45549;DHT22;31270;48.328;10.096;2022-12-29T08:34:38;7.20;99.90
45549;DHT22;31270;48.328;10.096;2022-12-29T08:37:04;7.30;99.90
45549;DHT22;31270;48.328;10.096;2022-12-29T08:39:30;7.30;99.90
45549;DHT22;31270;48.328;10.096;2022-12-29T08:41:56;7.30;99.90
45549;DHT22;31270;48.328;10.096;2022-12-29T08:44:21;7.40;99.90
45549;DHT22;31270;48.328;10.096;2022-12-29T08:46:47;7.40;99.90
45549;DHT22;31270;48.328;10.096;2022-12-29T08:49:13;7.50;99.90
45549;DHT22;31270;48.328;10.096;2022-12-29T08:51:39;7.50;99.90
45549;DHT22;31270;48.328;10.096;2022-12-29T08:54:05;7.50;99.90
45549;DHT22;31270;48.328;10.096;2022-12-29T08:56:31;7.60;99.90
45549;DHT22;31270;48.328;10.096;2022-12-29T08:58:56;7.60;99.90
45549;DHT22;31270;48.328;10.096;2022-12-29T09:01:22;7.60;99.90
45549;DHT22;31270;48.328;10.096;2022-12-29T09:03:48;7.60;99.90
45549;DHT22;31270;48.328;10.096;2022-12-29T09:06:15;7.70;99.90
45549;DHT22;31270;48.328;10.096;2022-12-29T09:08:42;7.80;99.90
45549;DHT22;31270;48.328;10.096;2022-12-29T09:11:16;7.90;99.90
45549;DHT22;31270;48.328;10.096;2022-12-29T09:13:42;8.00;99.90
45549;DHT22;31270;48.328;10.096;2022-12-29T09:16:08;8.00;99.90
45549;DHT22;31270;48.328;10.096;2022-12-29T09:18:37;8.00;99.90
45549;DHT22;31270;48.328;10.096;2022-12-29T09:21:05;8.20;99.90
45549;DHT22;31270;48.328;10.096;2022-12-29T09:23:32;8.20;99.90
45549;DHT22;31270;48.328;10.096;2022-12-29T09:25:59;8.30;99.90
45549;DHT22;31270;48.328;10.096;2022-12-29T09:28:25;8.30;99.90
45549;DHT22;31270;48.328;10.096;2022-12-29T09:30:51;8.30;99.90
45549;DHT22;31270;48.328;10.096;2022-12-29T09:33:16;8.30;99.90
45549;DHT22;31270;48.328;10.096;2022-12-29T09:35:50;8.40;99.90
45549;DHT22;31270;48.328;10.096;2022-12-29T09:38:16;8.60;99.90
45549;DHT22;31270;48.328;10.096;2022-12-29T09:40:44;8.60;99.90
45549;DHT22;31270;48.328;10.096;2022-12-29T09:43:22;8.80;99.90
45549;DHT22;31270;48.328;10.096;2022-12-29T09:46:05;8.80;99.90
45549;DHT22;31270;48.328;10.096;2022-12-29T09:48:41;9.00;99.90
45549;DHT22;31270;48.328;10.096;2022-12-29T09:51:15;9.20;99.90
45549;DHT22;31270;48.328;10.096;2022-12-29T09:53:43;9.40;99.90
45549;DHT22;31270;48.328;10.096;2022-12-29T09:56:18;9.50;99.90
45549;DHT22;31270;48.328;10.096;2022-12-29T09:58:54;9.70;99.90
45549;DHT22;31270;48.328;10.096;2022-12-29T10:03:56;9.80;99.90
45549;DHT22;31270;48.328;10.096;2022-12-29T10:09:17;9.80;99.90
45549;DHT22;31270;48.328;10.096;2022-12-29T10:12:14;9.90;99.90
45549;DHT22;31270;48.328;10.096;2022-12-29T10:17:48;10.10;99.90
45549;DHT22;31270;48.328;10.096;2022-12-29T10:20:48;10.10;99.90
45549;DHT22;31270;48.328;10.096;2022-12-29T10:23:40;10.20;99.90
45549;DHT22;31270;48.328;10.096;2022-12-29T10:26:36;10.20;99.90
45549;DHT22;31270;48.328;10.096;2022-12-29T10:29:16;10.30;99.90
45549;DHT22;31270;48.328;10.096;2022-12-29T10:32:02;10.30;99.90
45549;DHT22;31270;48.328;10.096;2022-12-29T10:34:35;10.50;99.90
45549;DHT22;31270;48.328;10.096;2022-12-29T10:39:55;10.70;99.90
45549;DHT22;31270;48.328;10.096;2022-12-29T10:42:32;10.80;99.90
45549;DHT22;31270;48.328;10.096;2022-12-29T10:45:00;11.00;99.90
45549;DHT22;31270;48.328;10.096;2022-12-29T10:47:29;11.10;99.90
45549;DHT22;31270;48.328;10.096;2022-12-29T10:49:56;11.10;99.90
45549;DHT22;31270;48.328;10.096;2022-12-29T10:52:25;11.20;99.90
45549;DHT22;31270;48.328;10.096;2022-12-29T10:54:56;11.10;99.90
45549;DHT22;31270;48.328;10.096;2022-12-29T10:57:31;11.10;99.90
45549;DHT22;31270;48.328;10.096;2022-12-29T10:59:57;11.20;99.90
45549;DHT22;31270;48.328;10.096;2022-12-29T11:05:34;11.10;99.90
45549;DHT22;31270;48.328;10.096;2022-12-29T11:08:04;11.10;99.90
45549;DHT22;31270;48.328;10.096;2022-12-29T11:13:18;11.10;99.90
45549;DHT22;31270;48.328;10.096;2022-12-29T11:15:48;11.00;99.90
45549;DHT22;31270;48.328;10.096;2022-12-29T11:18:23;10.90;99.90
45549;DHT22;31270;48.328;10.096;2022-12-29T11:20:57;10.90;99.90
45549;DHT22;31270;48.328;10.096;2022-12-29T11:23:40;10.90;99.90
45549;DHT22;31270;48.328;10.096;2022-12-29T11:29:05;10.80;99.90
45549;DHT22;31270;48.328;10.096;2022-12-29T11:31:31;10.80;99.90
45549;DHT22;31270;48.328;10.096;2022-12-29T11:34:07;10.90;99.90
45549;DHT22;31270;48.328;10.096;2022-12-29T11:36:34;10.80;99.90
45549;DHT22;31270;48.328;10.096;2022-12-29T11:39:00;10.90;99.90
45549;DHT22;31270;48.328;10.096;2022-12-29T11:41:35;10.80;99.90
45549;DHT22;31270;48.328;10.096;2022-12-29T11:44:04;11.00;99.90
45549;DHT22;31270;48.328;10.096;2022-12-29T11:46:33;10.90;99.90
45549;DHT22;31270;48.328;10.096;2022-12-29T11:49:01;10.90;99.90
45549;DHT22;31270;48.328;10.096;2022-12-29T11:52:01;10.90;99.90
45549;DHT22;31270;48.328;10.096;2022-12-29T11:54:32;10.90;99.90
45549;DHT22;31270;48.328;10.096;2022-12-29T11:57:12;10.90;99.90
45549;DHT22;31270;48.328;10.096;2022-12-29T11:59:55;10.90;99.90
45549;DHT22;31270;48.328;10.096;2022-12-29T12:02:38;11.00;99.90
45549;DHT22;31270;48.328;10.096;2022-12-29T12:07:44;11.00;99.90
45549;DHT22;31270;48.328;10.096;2022-12-29T12:10:21;11.00;99.90
45549;DHT22;31270;48.328;10.096;2022-12-29T12:13:06;11.00;99.90
45549;DHT22;31270;48.328;10.096;2022-12-29T12:15:40;11.00;99.90
45549;DHT22;31270;48.328;10.096;2022-12-29T12:20:57;11.10;99.90
45549;DHT22;31270;48.328;10.096;2022-12-29T12:23:38;11.20;99.90
45549;DHT22;31270;48.328;10.096;2022-12-29T12:26:12;11.10;99.90
45549;DHT22;31270;48.328;10.096;2022-12-29T12:31:27;11.10;99.90
45549;DHT22;31270;48.328;10.096;2022-12-29T12:34:01;11.10;99.90
45549;DHT22;31270;48.328;10.096;2022-12-29T12:36:54;11.00;99.90
45549;DHT22;31270;48.328;10.096;2022-12-29T12:42:27;10.90;99.90
45549;DHT22;31270;48.328;10.096;2022-12-29T12:50:14;10.90;99.90
45549;DHT22;31270;48.328;10.096;2022-12-29T12:52:57;10.90;99.90
45549;DHT22;31270;48.328;10.096;2022-12-29T13:01:13;10.90;99.90
45549;DHT22;31270;48.328;10.096;2022-12-29T13:07:10;10.90;99.90
45549;DHT22;31270;48.328;10.096;2022-12-29T13:12:45;10.80;99.90
45549;DHT22;31270;48.328;10.096;2022-12-29T13:15:30;10.80;99.90
45549;DHT22;31270;48.328;10.096;2022-12-29T13:20:54;10.80;99.90
45549;DHT22;31270;48.328;10.096;2022-12-29T13:26:39;10.80;99.90
45549;DHT22;31270;48.328;10.096;2022-12-29T13:29:41;10.80;99.90
45549;DHT22;31270;48.328;10.096;2022-12-29T13:32:22;10.80;99.90
45549;DHT22;31270;48.328;10.096;2022-12-29T13:35:14;10.80;99.90
45549;DHT22;31270;48.328;10.096;2022-12-29T13:38:05;10.70;99.90
45549;DHT22;31270;48.328;10.096;2022-12-29T13:40:38;10.70;99.90
45549;DHT22;31270;48.328;10.096;2022-12-29T13:43:05;10.70;99.90
45549;DHT22;31270;48.328;10.096;2022-12-29T13:45:32;10.70;99.90
45549;DHT22;31270;48.328;10.096;2022-12-29T13:48:28;10.70;99.90
45549;DHT22;31270;48.328;10.096;2022-12-29T13:50:59;10.70;99.90
45549;DHT22;31270;48.328;10.096;2022-12-29T13:53:55;10.70;99.90
45549;DHT22;31270;48.328;10.096;2022-12-29T13:56:33;10.70;99.90
45549;DHT22;31270;48.328;10.096;2022-12-29T13:59:15;10.60;99.90
45549;DHT22;31270;48.328;10.096;2022-12-29T14:01:48;10.70;99.90
45549;DHT22;31270;48.328;10.096;2022-12-29T14:04:22;10.60;99.90
45549;DHT22;31270;48.328;10.096;2022-12-29T14:07:03;10.60;99.90
45549;DHT22;31270;48.328;10.096;2022-12-29T14:09:42;10.60;99.90
45549;DHT22;31270;48.328;10.096;2022-12-29T14:12:40;10.60;99.90
45549;DHT22;31270;48.328;10.096;2022-12-29T14:17:38;10.60;99.90
45549;DHT22;31270;48.328;10.096;2022-12-29T14:20:16;10.60;99.90
45549;DHT22;31270;48.328;10.096;2022-12-29T14:26:00;10.60;99.90
45549;DHT22;31270;48.328;10.096;2022-12-29T14:28:30;10.50;99.90
45549;DHT22;31270;48.328;10.096;2022-12-29T14:31:02;10.50;99.90
45549;DHT22;31270;48.328;10.096;2022-12-29T14:33:30;10.50;99.90
45549;DHT22;31270;48.328;10.096;2022-12-29T14:35:57;10.50;99.90
45549;DHT22;31270;48.328;10.096;2022-12-29T14:38:46;10.50;99.90
45549;DHT22;31270;48.328;10.096;2022-12-29T14:41:22;10.50;99.90
45549;DHT22;31270;48.328;10.096;2022-12-29T14:44:27;10.50;99.90
45549;DHT22;31270;48.328;10.096;2022-12-29T14:49:21;10.40;99.90
45549;DHT22;31270;48.328;10.096;2022-12-29T14:51:53;10.40;99.90
45549;DHT22;31270;48.328;10.096;2022-12-29T14:57:15;10.30;99.90
45549;DHT22;31270;48.328;10.096;2022-12-29T14:59:44;10.30;99.90
45549;DHT22;31270;48.328;10.096;2022-12-29T15:02:20;10.30;99.90
45549;DHT22;31270;48.328;10.096;2022-12-29T15:04:47;10.20;99.90
45549;DHT22;31270;48.328;10.096;2022-12-29T15:07:13;10.20;99.90
45549;DHT22;31270;48.328;10.096;2022-12-29T15:09:43;10.20;99.90
45549;DHT22;31270;48.328;10.096;2022-12-29T15:12:41;10.20;99.90
45549;DHT22;31270;48.328;10.096;2022-12-29T15:15:26;10.10;99.90
45549;DHT22;31270;48.328;10.096;2022-12-29T15:17:52;10.10;99.90
45549;DHT22;31270;48.328;10.096;2022-12-29T15:22:58;10.00;99.90
45549;DHT22;31270;48.328;10.096;2022-12-29T15:25:26;9.90;99.90
45549;DHT22;31270;48.328;10.096;2022-12-29T15:28:01;9.90;99.90
45549;DHT22;31270;48.328;10.096;2022-12-29T15:30:27;9.90;99.90
45549;DHT22;31270;48.328;10.096;2022-12-29T15:32:53;9.90;99.90
45549;DHT22;31270;48.328;10.096;2022-12-29T15:35:35;9.80;99.90
45549;DHT22;31270;48.328;10.096;2022-12-29T15:38:33;9.80;99.90
45549;DHT22;31270;48.328;10.096;2022-12-29T15:41:04;9.90;99.90
45549;DHT22;31270;48.328;10.096;2022-12-29T15:43:57;9.90;99.90
45549;DHT22;31270;48.328;10.096;2022-12-29T15:46:27;9.80;99.90
45549;DHT22;31270;48.328;10.096;2022-12-29T15:48:55;9.80;99.90
45549;DHT22;31270;48.328;10.096;2022-12-29T15:51:34;9.80;99.90
45549;DHT22;31270;48.328;10.096;2022-12-29T15:54:00;9.70;99.90
45549;DHT22;31270;48.328;10.096;2022-12-29T15:56:29;9.70;99.90
45549;DHT22;31270;48.328;10.096;2022-12-29T15:58:55;9.70;99.90
45549;DHT22;31270;48.328;10.096;2022-12-29T16:01:27;9.70;99.90
45549;DHT22;31270;48.328;10.096;2022-12-29T16:04:10;9.70;99.90
45549;DHT22;31270;48.328;10.096;2022-12-29T16:06:38;9.60;99.90
45549;DHT22;31270;48.328;10.096;2022-12-29T16:09:05;9.70;99.90
45549;DHT22;31270;48.328;10.096;2022-12-29T16:11:44;9.60;99.90
45549;DHT22;31270;48.328;10.096;2022-12-29T16:14:16;9.60;99.90
45549;DHT22;31270;48.328;10.096;2022-12-29T16:16:45;9.60;99.90
45549;DHT22;31270;48.328;10.096;2022-12-29T16:19:17;9.50;99.90
45549;DHT22;31270;48.328;10.096;2022-12-29T16:21:44;9.50;99.90
45549;DHT22;31270;48.328;10.096;2022-12-29T16:24:16;9.40;99.90
45549;DHT22;31270;48.328;10.096;2022-12-29T16:27:07;9.30;99.90
45549;DHT22;31270;48.328;10.096;2022-12-29T16:29:35;9.30;99.90
45549;DHT22;31270;48.328;10.096;2022-12-29T16:32:02;9.30;99.90
45549;DHT22;31270;48.328;10.096;2022-12-29T16:34:34;9.20;99.90
45549;DHT22;31270;48.328;10.096;2022-12-29T16:37:33;9.20;99.90
45549;DHT22;31270;48.328;10.096;2022-12-29T16:47:43;9.00;99.90
45549;DHT22;31270;48.328;10.096;2022-12-29T16:50:16;8.90;99.90
45549;DHT22;31270;48.328;10.096;2022-12-29T16:52:48;8.90;99.90
45549;DHT22;31270;48.328;10.096;2022-12-29T16:55:17;8.90;99.90
45549;DHT22;31270;48.328;10.096;2022-12-29T16:57:44;8.80;99.90
45549;DHT22;31270;48.328;10.096;2022-12-29T17:00:23;8.70;99.90
45549;DHT22;31270;48.328;10.096;2022-12-29T17:02:51;8.70;99.90
45549;DHT22;31270;48.328;10.096;2022-12-29T17:05:21;8.70;99.90
45549;DHT22;31270;48.328;10.096;2022-12-29T17:07:46;8.70;99.90
45549;DHT22;31270;48.328;10.096;2022-12-29T17:10:13;8.60;99.90
45549;DHT22;31270;48.328;10.096;2022-12-29T17:12:41;8.60;99.90
45549;DHT22;31270;48.328;10.096;2022-12-29T17:15:12;8.50;99.90
45549;DHT22;31270;48.328;10.096;2022-12-29T17:17:44;8.40;99.90
45549;DHT22;31270;48.328;10.096;2022-12-29T17:20:21;8.40;99.90
45549;DHT22;31270;48.328;10.096;2022-12-29T17:22:48;8.40;99.90
45549;DHT22;31270;48.328;10.096;2022-12-29T17:25:16;8.30;99.90
45549;DHT22;31270;48.328;10.096;2022-12-29T17:27:50;8.30;99.90
45549;DHT22;31270;48.328;10.096;2022-12-29T17:30:20;8.30;99.90
45549;DHT22;31270;48.328;10.096;2022-12-29T17:32:52;8.30;99.90
45549;DHT22;31270;48.328;10.096;2022-12-29T17:35:20;8.30;99.90
45549;DHT22;31270;48.328;10.096;2022-12-29T17:37:46;8.40;99.90
45549;DHT22;31270;48.328;10.096;2022-12-29T17:40:21;8.40;99.90
45549;DHT22;31270;48.328;10.096;2022-12-29T17:42:48;8.30;99.90